Time;durP1;ratioP1;P1;durP2;ratioP2;P2;SDS_P1;SDS_P2;PMS_P1;PMS_P2;Temp;Humidity;BMP_temperature;BMP_pressure;BME280_temperature;BME280_humidity;BME280_pressure;Samples;Min_cycle;Max_cycle;Signal;HPM_P1;HPM_P2
2022/02/09 00:02:01;;;;;;;;;;;;;;;0.91;55.20;100703.59;117405;1186;23522;-55
2022/02/09 00:04:45;;;;;;;;;;;;;;;0.85;55.44;100701.20;117346;1185;21835;-58
2022/02/09 00:07:18;;;;;;;;;;;;;;;0.80;55.40;100695.15;117444;1183;23410;-55
2022/02/09 00:09:48;;;;;;;;;;;;;;;0.78;55.48;100694.20;117332;1185;21835;-57
2022/02/09 00:12:21;;;;;;;;;;;;;;;0.77;55.58;100689.86;117406;1183;21835;-56
2022/02/09 00:17:39;;;;;;;;;;;;;;;0.69;55.50;100696.36;117365;1186;22627;-59
2022/02/09 00:28:22;;;;;;;;;;;;;;;0.51;55.63;100700.92;117330;1185;21827;-58
2022/02/09 00:44:10;;;;;;;;;;;;;;;0.32;55.57;100693.38;117403;1183;21833;-55
2022/02/09 01:11:25;;;;;;;;;;;;;;;-0.01;55.45;100682.41;117381;1180;22060;-56
2022/02/09 01:11:57;;;;;;;;;;;;;;;-0.07;55.71;100688.23;117386;1183;21853;-56
2022/02/09 01:40:01;;;;;;;;;;;;;;;0.29;55.93;100679.83;116940;1189;21840;-57
2022/02/09 01:56:12;;;;;;;;;;;;;;;0.32;55.84;100684.73;116908;1186;21832;-54
2022/02/09 01:58:41;;;;;;;;;;;;;;;0.29;55.82;100681.20;116890;1189;21816;-57
2022/02/09 02:01:13;;;;;;;;;;;;;;;0.27;55.81;100672.83;116876;1186;22602;-54
2022/02/09 02:03:44;;;;;;;;;;;;;;;0.25;55.73;100673.11;117013;1188;23153;-55
2022/02/09 02:06:14;;;;;;;;;;;;;;;0.23;55.76;100677.54;116917;1185;23099;-57
2022/02/09 02:08:43;;;;;;;;;;;;;;;0.23;55.64;100678.75;116915;1186;23516;-57
2022/02/09 02:11:24;;;;;;;;;;;;;;;0.22;56.04;100674.74;117178;1186;21836;-55
2022/02/09 02:19:12;;;;;;;;;;;;;;;0.29;56.07;100669.80;117379;1182;23513;-55
2022/02/09 02:22:11;;;;;;;;;;;;;;;0.34;55.85;100668.74;117360;1183;22591;-54
2022/02/09 03:10:32;;;;;;;;;;;;;;;1.30;56.60;100661.44;117361;1185;21847;-56
2022/02/09 03:13:24;;;;;;;;;;;;;;;1.37;56.38;100663.38;117361;1185;21838;-57
2022/02/09 03:15:56;;;;;;;;;;;;;;;1.43;56.34;100670.98;117391;1185;23436;-58
2022/02/09 03:23:50;;;;;;;;;;;;;;;1.55;56.35;100669.05;117339;1182;21888;-55
2022/02/09 03:48:38;;;;;;;;;;;;;;;1.78;56.26;100668.35;117334;1183;22628;-54
2022/02/09 03:59:23;;;;;;;;;;;;;;;1.76;56.33;100667.09;116931;1189;22068;-57
2022/02/09 04:01:51;;;;;;;;;;;;;;;1.77;56.32;100665.89;117167;1186;22600;-55
2022/02/09 04:04:20;;;;;;;;;;;;;;;1.77;56.43;100669.00;117320;1185;21845;-55
2022/02/09 04:06:51;;;;;;;;;;;;;;;1.78;56.48;100669.04;117130;1186;21848;-59
2022/02/09 04:09:23;;;;;;;;;;;;;;;1.81;56.33;100665.83;117240;1186;22657;-57
2022/02/09 04:12:02;;;;;;;;;;;;;;;1.82;56.49;100666.55;117313;1182;21841;-56
2022/02/09 04:44:19;;;;;;;;;;;;;;;2.15;56.54;100674.37;117308;1183;22786;-54
2022/02/09 04:55:09;;;;;;;;;;;;;;;2.27;56.60;100677.28;117286;1183;21854;-58
2022/02/09 04:57:51;;;;;;;;;;;;;;;2.30;56.53;100674.60;117357;1188;22931;-57
2022/02/09 05:27:32;;;;;;;;;;;;;;;2.33;56.68;100667.39;117355;1186;21838;-56
2022/02/09 05:30:05;;;;;;;;;;;;;;;2.33;56.58;100662.91;117271;1182;21840;-58
2022/02/09 05:32:35;;;;;;;;;;;;;;;2.30;56.59;100674.24;117345;1186;21849;-58
2022/02/09 05:35:04;;;;;;;;;;;;;;;2.26;56.67;100672.91;117352;1182;23874;-55
2022/02/09 05:37:32;;;;;;;;;;;;;;;2.24;56.71;100672.36;117367;1186;23091;-55
2022/02/09 05:40:00;;;;;;;;;;;;;;;2.25;56.71;100673.05;117391;1186;23461;-54
2022/02/09 05:42:28;;;;;;;;;;;;;;;2.26;56.66;100676.91;117353;1186;23600;-57
2022/02/09 05:44:56;;;;;;;;;;;;;;;2.28;56.66;100681.13;117406;1183;21838;-59
2022/02/09 05:56:07;;;;;;;;;;;;;;;2.43;56.87;100687.40;117335;1186;21876;-56
2022/02/09 06:00:59;;;;;;;;;;;;;;;2.52;56.80;100688.15;118963;1185;21836;-57
2022/02/09 06:03:27;;;;;;;;;;;;;;;2.55;56.90;100686.14;119443;1185;21793;-56
2022/02/09 06:05:55;;;;;;;;;;;;;;;2.58;56.95;100689.85;119490;1183;21847;-56
2022/02/09 06:08:24;;;;;;;;;;;;;;;2.60;56.83;100690.27;119479;1183;21794;-55
2022/02/09 06:11:08;;;;;;;;;;;;;;;2.63;56.78;100689.30;119493;1182;21816;-55
2022/02/09 06:22:01;;;;;;;;;;;;;;;2.75;56.79;100695.48;117190;1185;21843;-56
2022/02/09 06:24:30;;;;;;;;;;;;;;;2.79;56.81;100697.66;117416;1185;22054;-55
2022/02/09 06:26:59;;;;;;;;;;;;;;;2.84;56.91;100697.09;117452;1182;21838;-58
2022/02/09 06:29:27;;;;;;;;;;;;;;;2.88;56.98;100703.41;117427;1186;21964;-55
2022/02/09 06:31:55;;;;;;;;;;;;;;;2.91;56.94;100703.84;117466;1185;21834;-57
2022/02/09 06:34:23;;;;;;;;;;;;;;;2.95;56.81;100704.80;117435;1182;21838;-59
2022/02/09 06:37:10;;;;;;;;;;;;;;;2.98;56.86;100707.82;117454;1183;21843;-59
2022/02/09 06:39:38;;;;;;;;;;;;;;;3.02;56.93;100714.14;117414;1183;23523;-54
2022/02/09 06:42:06;;;;;;;;;;;;;;;3.04;56.96;100713.85;117308;1185;23413;-55
2022/02/09 06:44:35;;;;;;;;;;;;;;;3.06;56.92;100718.06;117346;1186;22818;-59
2022/02/09 06:47:04;;;;;;;;;;;;;;;3.08;56.92;100715.33;117378;1189;23832;-59
2022/02/09 06:49:34;;;;;;;;;;;;;;;3.09;57.01;100718.66;117510;1185;23436;-56
2022/02/09 06:52:02;;;;;;;;;;;;;;;3.13;57.10;100717.36;117365;1183;21839;-58
2022/02/09 06:54:54;;;;;;;;;;;;;;;3.18;57.04;100718.86;117426;1182;23439;-54
2022/02/09 06:57:45;;;;;;;;;;;;;;;3.22;57.01;100719.12;117318;1183;23596;-55
2022/02/09 07:00:13;;;;;;;;;;;;;;;3.27;57.27;100719.59;117305;1186;21831;-59
2022/02/09 07:02:43;;;;;;;;;;;;;;;3.32;56.96;100715.36;117378;1183;22815;-55
2022/02/09 07:05:11;;;;;;;;;;;;;;;3.37;57.29;100717.55;117312;1186;21973;-59
2022/02/09 07:07:40;;;;;;;;;;;;;;;3.41;57.10;100716.96;117359;1186;21848;-59
2022/02/09 07:10:09;;;;;;;;;;;;;;;3.46;57.26;100719.84;117389;1182;22911;-59
2022/02/09 07:12:38;;;;;;;;;;;;;;;3.51;57.12;100724.13;117425;1186;21846;-54
2022/02/09 07:15:12;;;;;;;;;;;;;;;3.57;57.28;100727.89;117325;1185;23449;-54
2022/02/09 07:17:43;;;;;;;;;;;;;;;3.63;57.22;100725.08;117387;1186;22908;-55
2022/02/09 07:20:22;;;;;;;;;;;;;;;3.70;57.16;100727.65;117389;1185;24193;-58
2022/02/09 07:22:55;;;;;;;;;;;;;;;3.76;57.27;100722.58;117386;1185;24122;-57
2022/02/09 07:25:31;;;;;;;;;;;;;;;3.84;57.18;100727.77;117415;1182;24134;-55
2022/02/09 07:28:02;;;;;;;;;;;;;;;3.86;57.13;100728.34;117296;1185;21848;-56
2022/02/09 07:30:30;;;;;;;;;;;;;;;3.83;57.12;100732.09;117346;1186;22635;-55
2022/02/09 07:33:00;;;;;;;;;;;;;;;3.85;57.08;100738.20;117247;1182;22603;-59
2022/02/09 07:35:31;;;;;;;;;;;;;;;3.86;57.23;100744.31;117322;1179;23439;-57
2022/02/09 07:37:59;;;;;;;;;;;;;;;3.87;57.12;100749.19;117402;1184;21859;-56
2022/02/09 07:40:27;;;;;;;;;;;;;;;3.89;57.29;100755.30;117416;1183;21844;-56
2022/02/09 07:42:59;;;;;;;;;;;;;;;3.91;57.21;100757.95;117465;1183;24120;-56
2022/02/09 07:50:59;;;;;;;;;;;;;;;4.07;57.41;100760.54;117395;1183;21845;-55
2022/02/09 07:53:25;;;;;;;;;;;;;;;4.13;57.63;100763.79;117390;1185;21852;-58
2022/02/09 07:55:53;;;;;;;;;;;;;;;4.17;57.49;100762.29;117386;1184;22972;-55
2022/02/09 07:58:21;;;;;;;;;;;;;;;4.21;57.38;100762.73;117407;1182;23413;-55
2022/02/09 08:00:50;;;;;;;;;;;;;;;4.28;57.45;100764.59;117387;1185;23452;-55
2022/02/09 08:03:18;;;;;;;;;;;;;;;4.33;57.22;100762.60;117417;1187;22093;-56
2022/02/09 08:05:46;;;;;;;;;;;;;;;4.35;57.39;100765.24;117388;1186;21835;-54
2022/02/09 08:08:16;;;;;;;;;;;;;;;4.37;57.43;100772.94;117380;1182;23522;-55
2022/02/09 08:10:49;;;;;;;;;;;;;;;4.35;57.44;100775.86;117444;1183;21837;-55
2022/02/09 08:29:48;;;;;;;;;;;;;;;4.50;57.28;100790.90;117432;1186;21876;-55
2022/02/09 08:35:00;;;;;;;;;;;;;;;4.66;57.61;100792.06;117400;1182;23430;-57
2022/02/09 08:37:29;;;;;;;;;;;;;;;4.75;57.77;100788.77;117392;1176;23445;-59
2022/02/09 08:39:57;;;;;;;;;;;;;;;4.87;57.61;100793.85;117459;1185;21848;-56
2022/02/09 08:42:25;;;;;;;;;;;;;;;4.98;57.95;100788.82;117432;1182;22786;-55
2022/02/09 08:44:55;;;;;;;;;;;;;;;5.12;57.99;100789.41;117457;1186;24203;-58
2022/02/09 08:47:44;;;;;;;;;;;;;;;5.29;58.15;100791.24;117330;1183;23442;-58
2022/02/09 08:50:12;;;;;;;;;;;;;;;5.44;57.97;100790.79;117467;1182;22125;-56
2022/02/09 08:52:41;;;;;;;;;;;;;;;5.58;58.24;100789.77;117433;1186;23410;-56
2022/02/09 08:55:09;;;;;;;;;;;;;;;5.74;58.27;100788.60;117459;1182;21902;-58
2022/02/09 08:57:37;;;;;;;;;;;;;;;6.01;58.46;100785.66;117402;1182;22599;-56
2022/02/09 09:00:13;;;;;;;;;;;;;;;6.39;59.01;100785.27;117434;1182;24124;-56
2022/02/09 09:02:46;;;;;;;;;;;;;;;6.75;59.18;100785.48;117416;1185;24146;-58
2022/02/09 09:05:24;;;;;;;;;;;;;;;7.03;59.41;100786.77;117417;1186;22093;-59
2022/02/09 09:08:06;;;;;;;;;;;;;;;7.17;58.97;100789.86;117183;1183;23417;-56
2022/02/09 09:10:48;;;;;;;;;;;;;;;7.23;58.56;100789.23;118682;1185;22934;-58
2022/02/09 10:33:53;;;;;;;;;;;;;;;8.55;58.74;100805.34;117357;1188;23416;-56
2022/02/09 10:36:21;;;;;;;;;;;;;;;8.68;58.76;100798.04;117271;1182;21838;-58
2022/02/09 10:38:51;;;;;;;;;;;;;;;8.86;58.95;100795.44;117325;1183;21845;-57
2022/02/09 10:41:27;;;;;;;;;;;;;;;9.03;59.12;100795.29;117428;1186;21899;-58
2022/02/09 10:44:04;;;;;;;;;;;;;;;9.20;58.97;100794.77;117357;1182;21879;-58
2022/02/09 10:46:44;;;;;;;;;;;;;;;9.39;58.81;100788.10;117355;1185;24210;-57
2022/02/09 10:49:15;;;;;;;;;;;;;;;9.61;58.92;100785.80;117435;1185;22908;-58
2022/02/09 10:51:49;;;;;;;;;;;;;;;9.86;59.03;100786.25;117346;1176;21858;-58
2022/02/09 10:54:18;;;;;;;;;;;;;;;10.12;58.94;100782.66;117273;1185;23420;-58
2022/02/09 10:56:47;;;;;;;;;;;;;;;10.38;59.05;100784.48;117361;1182;22789;-57
2022/02/09 10:59:15;;;;;;;;;;;;;;;10.69;59.00;100786.28;118431;1185;22899;-57
2022/02/09 11:01:44;;;;;;;;;;;;;;;10.95;59.08;100782.58;117540;1182;21844;-56
2022/02/09 11:04:12;;;;;;;;;;;;;;;11.13;58.65;100782.08;117263;1185;21820;-60
2022/02/09 11:06:41;;;;;;;;;;;;;;;11.19;58.41;100781.70;117359;1186;21918;-58
2022/02/09 11:09:10;;;;;;;;;;;;;;;11.18;58.17;100779.78;117456;1182;23534;-58
2022/02/09 11:11:40;;;;;;;;;;;;;;;11.11;58.20;100779.83;117344;1185;21854;-59
2022/02/09 11:14:14;;;;;;;;;;;;;;;11.01;57.83;100784.83;117062;1185;21840;-58
2022/02/09 11:16:43;;;;;;;;;;;;;;;10.90;57.55;100789.98;117364;1185;21851;-58
2022/02/09 11:19:12;;;;;;;;;;;;;;;10.73;57.32;100799.59;117450;1183;22986;-58
2022/02/09 11:21:41;;;;;;;;;;;;;;;10.55;57.34;100796.70;117438;1183;22901;-58
2022/02/09 11:24:15;;;;;;;;;;;;;;;10.36;57.32;100799.06;117395;1182;21836;-57
2022/02/09 11:27:06;;;;;;;;;;;;;;;10.19;57.18;100809.46;117399;1186;21838;-59
2022/02/09 11:35:01;;;;;;;;;;;;;;;9.63;57.39;100825.73;117469;1186;21945;-59
2022/02/09 11:37:41;;;;;;;;;;;;;;;9.43;57.65;100826.64;117409;1185;23543;-58
2022/02/09 11:40:30;;;;;;;;;;;;;;;9.35;57.68;100828.55;117334;1185;24133;-58
2022/02/09 11:43:34;;;;;;;;;;;;;;;9.26;57.59;100833.11;117421;1184;23673;-58
2022/02/09 11:52:00;;;;;;;;;;;;;;;9.35;58.04;100838.89;117359;1176;21839;-58
2022/02/09 12:11:12;;;;;;;;;;;;;;;9.65;57.53;100848.34;117437;1186;21838;-57
2022/02/09 12:19:06;;;;;;;;;;;;;;;9.35;57.07;100857.46;117423;1185;21829;-57
2022/02/09 12:21:51;;;;;;;;;;;;;;;9.26;56.98;100865.52;117380;1183;23467;-57
2022/02/09 12:24:23;;;;;;;;;;;;;;;9.17;57.02;100865.67;117435;1182;21838;-57
2022/02/09 12:26:54;;;;;;;;;;;;;;;9.12;56.92;100869.16;117387;1183;21849;-59
2022/02/09 12:29:23;;;;;;;;;;;;;;;9.10;57.04;100872.66;117410;1185;21838;-57
2022/02/09 12:31:51;;;;;;;;;;;;;;;9.12;57.13;100873.89;117430;1183;21845;-57
2022/02/09 12:34:25;;;;;;;;;;;;;;;9.15;57.24;100877.40;117379;1182;21848;-57
2022/02/09 12:36:54;;;;;;;;;;;;;;;9.18;57.09;100870.58;117418;1185;22908;-56
2022/02/09 12:39:23;;;;;;;;;;;;;;;9.20;56.95;100873.73;117392;1185;22651;-58
2022/02/09 12:41:59;;;;;;;;;;;;;;;9.27;57.30;100876.90;117328;1185;21847;-57
2022/02/09 12:44:27;;;;;;;;;;;;;;;9.36;57.20;100879.17;117335;1185;22094;-59
2022/02/09 12:46:55;;;;;;;;;;;;;;;9.40;57.26;100888.98;117368;1185;21964;-58
2022/02/09 12:49:23;;;;;;;;;;;;;;;9.44;56.88;100889.52;117330;1183;23429;-57
2022/02/09 12:51:52;;;;;;;;;;;;;;;9.43;56.88;100897.58;117366;1185;22317;-59
2022/02/09 12:54:20;;;;;;;;;;;;;;;9.36;56.72;100899.30;117398;1185;23519;-58
2022/02/09 12:56:50;;;;;;;;;;;;;;;9.27;56.73;100902.98;117380;1182;23439;-59
2022/02/09 12:59:18;;;;;;;;;;;;;;;9.13;56.42;100912.23;117404;1182;22600;-58
2022/02/09 13:01:51;;;;;;;;;;;;;;;9.02;56.36;100919.05;117190;1185;21898;-56
2022/02/09 13:04:33;;;;;;;;;;;;;;;8.95;56.37;100929.52;117331;1183;22766;-58
2022/02/09 13:07:02;;;;;;;;;;;;;;;8.94;56.33;100931.09;117356;1182;23416;-58
2022/02/09 13:09:30;;;;;;;;;;;;;;;8.91;56.28;100934.23;117322;1185;22972;-57
2022/02/09 13:11:58;;;;;;;;;;;;;;;8.85;56.39;100943.13;117342;1185;21876;-57
2022/02/09 13:14:38;;;;;;;;;;;;;;;8.81;56.34;100950.30;117353;1179;22777;-57
2022/02/09 14:12:51;;;;;;;;;;;;;;;8.47;56.75;100999.77;117391;1185;21843;-58
2022/02/09 14:15:48;;;;;;;;;;;;;;;8.47;56.80;101006.60;117378;1182;21829;-58
2022/02/09 14:49:08;;;;;;;;;;;;;;;8.24;56.55;101035.45;117422;1185;21973;-57
2022/02/09 14:57:02;;;;;;;;;;;;;;;8.18;56.50;101046.77;116974;1187;21832;-55
2022/02/09 14:59:50;;;;;;;;;;;;;;;8.16;56.56;101048.86;117288;1185;22635;-57
2022/02/09 15:02:33;;;;;;;;;;;;;;;8.14;56.51;101053.02;117352;1185;21838;-59
2022/02/09 15:08:13;;;;;;;;;;;;;;;8.05;56.49;101063.61;117333;1181;23672;-57
2022/02/09 15:13:39;;;;;;;;;;;;;;;7.92;56.28;101076.79;117358;1185;24121;-58
2022/02/09 15:23:34;;;;;;;;;;;;;;;7.68;56.16;101095.05;117336;1182;22945;-59
2022/02/09 15:26:04;;;;;;;;;;;;;;;7.64;56.16;101102.00;117361;1182;23416;-58
2022/02/09 15:28:36;;;;;;;;;;;;;;;7.61;56.29;101102.14;117363;1182;23571;-58
2022/02/09 15:33:51;;;;;;;;;;;;;;;7.53;56.29;101106.05;117339;1182;23427;-60
2022/02/09 15:36:46;;;;;;;;;;;;;;;7.50;56.25;101108.30;117345;1182;24126;-57
2022/02/09 15:39:15;;;;;;;;;;;;;;;7.49;56.32;101111.09;117354;1185;21893;-57
2022/02/09 15:42:10;;;;;;;;;;;;;;;7.49;56.26;101120.16;117431;1185;22611;-57
2022/02/09 16:09:37;;;;;;;;;;;;;;;7.30;56.06;101154.65;117419;1186;22159;-57
2022/02/09 16:25:55;;;;;;;;;;;;;;;7.06;56.41;101171.61;117359;1182;22615;-57
2022/02/09 16:45:15;;;;;;;;;;;;;;;7.15;56.36;101191.62;117282;1182;22304;-56
2022/02/09 16:48:08;;;;;;;;;;;;;;;7.16;56.49;101197.58;117374;1185;21877;-56
2022/02/09 16:50:38;;;;;;;;;;;;;;;7.15;56.40;101197.73;117449;1182;23439;-56
2022/02/09 16:53:25;;;;;;;;;;;;;;;7.16;56.52;101196.70;117351;1185;22632;-56
2022/02/09 17:20:39;;;;;;;;;;;;;;;7.10;56.36;101211.46;117337;1182;21838;-57
2022/02/09 17:23:07;;;;;;;;;;;;;;;7.09;56.15;101211.59;117369;1185;21839;-56
2022/02/09 17:25:35;;;;;;;;;;;;;;;7.08;56.10;101205.66;117414;1185;22908;-57
2022/02/09 17:28:09;;;;;;;;;;;;;;;7.08;56.25;101207.92;117333;1185;22083;-58
2022/02/09 17:33:30;;;;;;;;;;;;;;;7.05;56.26;101216.11;117389;1185;21983;-56
2022/02/09 17:36:50;;;;;;;;;;;;;;;7.05;56.28;101215.92;117458;1185;22950;-56
2022/02/09 17:57:52;;;;;;;;;;;;;;;6.94;56.41;101244.52;119305;1185;21831;-58
2022/02/09 18:00:20;;;;;;;;;;;;;;;6.96;56.26;101249.30;117346;1185;22058;-59
2022/02/09 18:02:50;;;;;;;;;;;;;;;6.93;56.20;101256.38;117324;1185;22957;-57
2022/02/09 18:05:30;;;;;;;;;;;;;;;6.88;56.02;101259.95;117135;1186;21848;-57
2022/02/09 18:08:05;;;;;;;;;;;;;;;6.81;56.07;101261.23;117210;1185;23453;-58
2022/02/09 18:45:26;;;;;;;;;;;;;;;5.83;56.58;101271.00;117380;1185;22315;-59
2022/02/09 19:04:34;;;;;;;;;;;;;;;5.80;56.42;101294.09;117430;1185;24126;-55
2022/02/09 19:15:55;;;;;;;;;;;;;;;5.60;56.28;101291.21;117354;1182;21926;-60
2022/02/09 19:40:43;;;;;;;;;;;;;;;4.88;55.97;101310.38;117426;1185;21923;-56
2022/02/09 19:48:41;;;;;;;;;;;;;;;4.64;55.96;101322.58;117348;1185;22783;-56
2022/02/09 19:51:21;;;;;;;;;;;;;;;4.56;55.90;101324.64;117397;1185;24185;-57
2022/02/09 19:56:39;;;;;;;;;;;;;;;4.40;55.94;101338.80;117321;1185;24201;-58
2022/02/09 19:59:19;;;;;;;;;;;;;;;4.34;55.99;101348.70;117292;1183;22955;-60
2022/02/09 20:01:50;;;;;;;;;;;;;;;4.27;55.79;101355.64;117384;1182;23515;-56
2022/02/09 20:04:19;;;;;;;;;;;;;;;4.21;55.82;101358.94;117207;1186;21946;-58
2022/02/09 20:06:48;;;;;;;;;;;;;;;4.24;55.75;101360.40;117388;1185;21839;-56
2022/02/09 20:09:34;;;;;;;;;;;;;;;4.10;55.88;101360.87;117388;1185;21996;-59
2022/02/09 20:12:02;;;;;;;;;;;;;;;4.05;55.83;101360.55;119467;1183;21801;-56
2022/02/09 20:14:40;;;;;;;;;;;;;;;4.02;55.81;101358.20;118466;1183;21956;-57
2022/02/09 20:17:08;;;;;;;;;;;;;;;3.86;55.69;101352.52;117362;1185;23494;-57
2022/02/09 20:19:38;;;;;;;;;;;;;;;3.74;55.66;101349.52;117367;1184;21881;-58
2022/02/09 20:22:07;;;;;;;;;;;;;;;3.64;55.63;101353.04;117329;1182;21835;-56
2022/02/09 20:24:35;;;;;;;;;;;;;;;3.53;55.80;101352.52;117502;1185;21892;-58
2022/02/09 20:27:05;;;;;;;;;;;;;;;3.47;55.78;101356.48;117447;1185;21839;-58
2022/02/09 20:29:37;;;;;;;;;;;;;;;3.43;55.91;101356.02;117390;1185;21839;-58
2022/02/09 20:34:39;;;;;;;;;;;;;;;3.46;56.20;101366.52;117362;1182;24182;-56
2022/02/09 20:37:09;;;;;;;;;;;;;;;3.50;56.09;101364.41;117335;1185;21833;-58
2022/02/09 20:39:45;;;;;;;;;;;;;;;3.55;56.05;101367.34;117353;1185;22103;-55
2022/02/09 20:42:17;;;;;;;;;;;;;;;3.56;56.15;101366.34;117300;1185;22911;-56
2022/02/09 20:44:53;;;;;;;;;;;;;;;3.59;56.16;101375.08;117350;1185;22276;-58
2022/02/09 20:47:21;;;;;;;;;;;;;;;3.64;56.12;101378.91;117332;1185;23419;-57
2022/02/09 20:49:50;;;;;;;;;;;;;;;3.66;56.18;101381.03;117367;1185;21879;-57
2022/02/09 20:52:17;;;;;;;;;;;;;;;3.67;56.24;101384.03;117381;1184;23509;-55
2022/02/09 20:54:47;;;;;;;;;;;;;;;3.71;55.98;101381.03;117479;1185;21829;-57
2022/02/09 20:57:15;;;;;;;;;;;;;;;3.73;56.32;101383.02;117451;1185;21838;-57
2022/02/09 20:59:48;;;;;;;;;;;;;;;3.75;56.07;101382.20;117430;1182;23518;-57
2022/02/09 21:02:32;;;;;;;;;;;;;;;3.78;56.21;101380.73;117413;1184;23420;-58
2022/02/09 21:05:23;;;;;;;;;;;;;;;3.75;56.30;101384.45;117381;1185;21835;-58
2022/02/09 21:08:02;;;;;;;;;;;;;;;3.72;56.22;101385.43;117324;1185;21839;-55
2022/02/09 21:10:42;;;;;;;;;;;;;;;3.72;56.17;101391.48;117440;1185;23559;-55
2022/02/09 21:16:23;;;;;;;;;;;;;;;3.68;56.16;101393.44;117254;1185;23411;-56
2022/02/09 21:21:58;;;;;;;;;;;;;;;3.59;56.12;101389.50;117335;1185;21838;-57
2022/02/09 21:54:38;;;;;;;;;;;;;;;3.33;56.01;101395.77;117373;1186;21907;-58
2022/02/09 22:22:17;;;;;;;;;;;;;;;2.64;55.98;101408.81;117193;1187;21838;-54
2022/02/09 22:27:40;;;;;;;;;;;;;;;2.51;55.97;101413.18;117406;1185;21882;-55
2022/02/09 22:30:48;;;;;;;;;;;;;;;2.50;56.13;101407.58;117453;1185;21970;-55
2022/02/09 22:55:09;;;;;;;;;;;;;;;2.39;55.65;101406.14;117417;1186;21845;-55
2022/02/09 22:57:50;;;;;;;;;;;;;;;2.35;55.63;101404.27;117368;1185;21943;-57
2022/02/09 23:01:04;;;;;;;;;;;;;;;2.31;55.52;101401.32;117387;1185;23500;-56
2022/02/09 23:06:13;;;;;;;;;;;;;;;2.21;55.54;101404.60;117240;1186;21841;-57
2022/02/09 23:11:50;;;;;;;;;;;;;;;2.16;55.56;101415.51;117374;1185;21837;-58
